createdAt,value
2022-10-29T00:00:12.184Z,100201.16
2022-10-29T00:00:24.099Z,100201.16
2022-10-29T00:00:36.009Z,100196.88
2022-10-29T00:00:52.095Z,100197.81
2022-10-29T00:01:04.086Z,100197.00
2022-10-29T00:01:16.055Z,100200.47
2022-10-29T00:01:28.065Z,100194.31
2022-10-29T00:01:40.064Z,100196.88
2022-10-29T00:01:52.085Z,100198.59
2022-10-29T00:02:04.137Z,100195.97
2022-10-29T00:02:16.088Z,100205.44
2022-10-29T00:02:28.210Z,100194.97
2022-10-29T00:02:40.228Z,100201.16
2022-10-29T00:02:52.308Z,100198.44
2022-10-29T00:03:04.489Z,100199.31
2022-10-29T00:03:16.548Z,100196.59
2022-10-29T00:03:28.567Z,100194.97
2022-10-29T00:03:40.479Z,100191.63
2022-10-29T00:03:52.474Z,100201.31
2022-10-29T00:04:04.519Z,100194.31
2022-10-29T00:04:16.515Z,100203.94
2022-10-29T00:04:28.526Z,100197.00
2022-10-29T00:04:40.396Z,100202.25
2022-10-29T00:04:52.283Z,100203.94
2022-10-29T00:05:04.422Z,100198.69
2022-10-29T00:05:16.478Z,100205.66
2022-10-29T00:05:28.369Z,100193.47
2022-10-29T00:05:40.301Z,100200.53
2022-10-29T00:05:56.710Z,100198.97
2022-10-29T00:06:11.605Z,100210.38
2022-10-29T00:06:23.533Z,100202.38
2022-10-29T00:06:35.734Z,100207.59
2022-10-29T00:07:05.641Z,100199.53
2022-10-29T00:07:17.561Z,100198.59
2022-10-29T00:07:29.464Z,100194.25
2022-10-29T00:07:41.426Z,100196.88
2022-10-29T00:07:53.716Z,100199.53
2022-10-29T00:08:05.984Z,100201.19
2022-10-29T00:08:17.884Z,100200.28
2022-10-29T00:08:32.066Z,100200.41
2022-10-29T00:08:44.044Z,100197.59
2022-10-29T00:08:56.089Z,100194.91
2022-10-29T00:09:08.006Z,100197.47
2022-10-29T00:09:19.897Z,100201.84
2022-10-29T00:09:31.765Z,100198.31
2022-10-29T00:09:43.656Z,100198.31
2022-10-29T00:09:55.549Z,100195.91
2022-10-29T00:10:08.450Z,100193.34
2022-10-29T00:10:20.412Z,100193.34
2022-10-29T00:10:32.352Z,100186.38
2022-10-29T00:10:44.265Z,100189.78
2022-10-29T00:11:04.365Z,100198.44
2022-10-29T00:11:19.458Z,100198.25
2022-10-29T00:11:31.395Z,100195.53
2022-10-29T00:11:43.275Z,100194.75
2022-10-29T00:11:55.182Z,100201.72
2022-10-29T00:12:07.542Z,100198.44
2022-10-29T00:12:19.517Z,100193.66
2022-10-29T00:12:31.544Z,100195.56
2022-10-29T00:12:43.438Z,100193.00
2022-10-29T00:12:55.617Z,100187.75
2022-10-29T00:13:07.490Z,100187.66
2022-10-29T00:13:36.025Z,100190.31
2022-10-29T00:13:53.074Z,100199.81
2022-10-29T00:14:09.748Z,100190.06
2022-10-29T00:14:21.862Z,100190.06
2022-10-29T00:14:34.024Z,100190.91
2022-10-29T00:14:46.227Z,100194.66
2022-10-29T00:14:58.263Z,100198.72
2022-10-29T00:15:11.160Z,100198.44
2022-10-29T00:15:24.490Z,100193.31
2022-10-29T00:15:42.300Z,100190.69
2022-10-29T00:16:00.516Z,100192.41
2022-10-29T00:16:20.123Z,100190.84
2022-10-29T00:16:37.503Z,100195.03
2022-10-29T00:16:56.904Z,100191.47
2022-10-29T00:17:08.991Z,100198.22
2022-10-29T00:17:23.056Z,100189.41
2022-10-29T00:17:35.152Z,100195.34
2022-10-29T00:17:47.271Z,100191.78
2022-10-29T00:17:59.478Z,100192.56
2022-10-29T00:18:11.674Z,100194.13
2022-10-29T00:18:23.887Z,100194.25
2022-10-29T00:18:36.023Z,100186.34
2022-10-29T00:18:49.571Z,100190.84
2022-10-29T00:19:01.695Z,100189.16
2022-10-29T00:19:13.782Z,100190.06
2022-10-29T00:19:27.794Z,100189.41
2022-10-29T00:19:39.979Z,100191.22
2022-10-29T00:19:52.067Z,100193.06
2022-10-29T00:20:05.117Z,100193.97
2022-10-29T00:20:20.838Z,100191.22
2022-10-29T00:20:32.905Z,100192.94
2022-10-29T00:20:44.977Z,100191.91
2022-10-29T00:21:01.370Z,100187.44
2022-10-29T00:21:21.108Z,100192.75
2022-10-29T00:21:34.663Z,100191.78
2022-10-29T00:21:46.777Z,100192.56
2022-10-29T00:21:58.943Z,100193.41
2022-10-29T00:22:11.004Z,100194.25
2022-10-29T00:22:23.091Z,100195.97
2022-10-29T00:22:36.338Z,100190.59
2022-10-29T00:22:48.588Z,100193.09
2022-10-29T00:23:09.331Z,100195.72
2022-10-29T00:23:22.735Z,100190.47
2022-10-29T00:23:35.268Z,100186.03
2022-10-29T00:23:48.131Z,100188.63
2022-10-29T00:24:00.265Z,100188.69
2022-10-29T00:24:12.492Z,100190.47
2022-10-29T00:24:24.622Z,100197.53
2022-10-29T00:24:38.137Z,100192.41
2022-10-29T00:24:50.306Z,100188.19
2022-10-29T00:25:04.629Z,100189.16
2022-10-29T00:25:16.870Z,100190.19
2022-10-29T00:25:28.945Z,100190.31
2022-10-29T00:25:41.094Z,100191.16
2022-10-29T00:26:02.432Z,100196.34
2022-10-29T00:26:15.954Z,100191.00
2022-10-29T00:26:30.185Z,100191.69
2022-10-29T00:26:42.310Z,100190.72
2022-10-29T00:26:58.701Z,100191.53
2022-10-29T00:27:10.877Z,100190.53
2022-10-29T00:27:23.115Z,100196.56
2022-10-29T00:27:35.224Z,100195.56
2022-10-29T00:27:48.411Z,100192.03
2022-10-29T00:28:00.600Z,100189.34
2022-10-29T00:28:12.742Z,100193.63
2022-10-29T00:28:25.976Z,100196.28
2022-10-29T00:28:38.598Z,100194.56
2022-10-29T00:28:54.925Z,100186.81
2022-10-29T00:29:07.060Z,100193.00
2022-10-29T00:29:20.495Z,100192.31
2022-10-29T00:29:32.595Z,100197.53
2022-10-29T00:29:44.685Z,100190.59
2022-10-29T00:29:57.025Z,100197.66
2022-10-29T00:30:09.871Z,100201.06
2022-10-29T00:30:21.973Z,100202.78
2022-10-29T00:30:37.310Z,100194.84
2022-10-29T00:30:49.403Z,100191.31
2022-10-29T00:31:15.156Z,100188.91
2022-10-29T00:31:27.431Z,100194.25
2022-10-29T00:31:39.617Z,100195.25
2022-10-29T00:31:56.350Z,100197.91
2022-10-29T00:32:10.064Z,100197.91
2022-10-29T00:32:24.442Z,100194.41
2022-10-29T00:32:36.487Z,100200.44
2022-10-29T00:32:48.708Z,100195.97
2022-10-29T00:33:01.910Z,100198.50
2022-10-29T00:33:14.032Z,100203.69
2022-10-29T00:33:26.037Z,100196.66
2022-10-29T00:33:38.459Z,100197.66
2022-10-29T00:33:52.344Z,100197.59
2022-10-29T00:34:04.427Z,100202.78
2022-10-29T00:34:16.498Z,100199.28
2022-10-29T00:34:29.457Z,100194.00
2022-10-29T00:34:41.524Z,100195.81
2022-10-29T00:34:55.868Z,100194.00
2022-10-29T00:35:09.438Z,100193.16
2022-10-29T00:35:21.586Z,100202.63
2022-10-29T00:35:33.728Z,100197.41
2022-10-29T00:35:58.185Z,100199.97
2022-10-29T00:36:17.803Z,100197.28
2022-10-29T00:36:30.468Z,100194.72
2022-10-29T00:36:43.965Z,100199.13
2022-10-29T00:36:56.132Z,100195.56
2022-10-29T00:37:08.182Z,100195.63
2022-10-29T00:37:20.176Z,100200.94
2022-10-29T00:37:33.461Z,100193.88
2022-10-29T00:37:45.520Z,100204.34
2022-10-29T00:37:57.814Z,100204.34
2022-10-29T00:38:13.139Z,100202.50
2022-10-29T00:38:26.436Z,100203.34
2022-10-29T00:38:39.032Z,100200.81
2022-10-29T00:38:51.305Z,100200.81
2022-10-29T00:39:03.528Z,100204.47
2022-10-29T00:39:16.571Z,100194.00
2022-10-29T00:39:29.569Z,100200.94
2022-10-29T00:39:41.623Z,100200.94
2022-10-29T00:39:56.735Z,100199.13
2022-10-29T00:40:09.585Z,100198.19
2022-10-29T00:40:21.707Z,100200.81
2022-10-29T00:40:38.468Z,100193.78
2022-10-29T00:40:50.787Z,100200.69
2022-10-29T00:41:04.727Z,100196.28
2022-10-29T00:41:21.478Z,100197.91
2022-10-29T00:41:33.547Z,100201.47
2022-10-29T00:41:45.620Z,100193.63
2022-10-29T00:41:57.671Z,100200.69
2022-10-29T00:42:15.747Z,100198.97
2022-10-29T00:42:27.927Z,100194.72
2022-10-29T00:42:39.996Z,100191.31
2022-10-29T00:42:52.026Z,100203.56
2022-10-29T00:43:18.467Z,100199.38
2022-10-29T00:43:36.616Z,100194.97
2022-10-29T00:43:51.479Z,100200.16
2022-10-29T00:44:18.624Z,100190.59
2022-10-29T00:44:38.989Z,100192.31
2022-10-29T00:44:51.300Z,100193.94
2022-10-29T00:45:03.603Z,100195.72
2022-10-29T00:45:20.897Z,100201.06
2022-10-29T00:45:32.980Z,100192.31
2022-10-29T00:45:54.695Z,100192.31
2022-10-29T00:46:13.983Z,100190.47
2022-10-29T00:46:33.938Z,100190.59
2022-10-29T00:46:52.555Z,100185.28
2022-10-29T00:47:18.561Z,100195.63
2022-10-29T00:47:34.592Z,100186.03
2022-10-29T00:47:50.954Z,100190.31
2022-10-29T00:48:03.111Z,100187.75
2022-10-29T00:48:15.555Z,100193.94
2022-10-29T00:48:29.827Z,100189.53
2022-10-29T00:48:51.698Z,100190.47
2022-10-29T00:49:03.916Z,100187.75
2022-10-29T00:49:17.719Z,100194.72
2022-10-29T00:49:32.775Z,100192.03
2022-10-29T00:49:47.945Z,100191.91
2022-10-29T00:50:08.565Z,100193.72
2022-10-29T00:50:24.195Z,100189.28
2022-10-29T00:50:36.373Z,100189.44
2022-10-29T00:50:53.586Z,100186.91
2022-10-29T00:51:08.956Z,100188.81
2022-10-29T00:51:21.455Z,100198.75
2022-10-29T00:51:34.390Z,100192.69
2022-10-29T00:51:47.674Z,100191.78
2022-10-29T00:52:03.113Z,100192.56
2022-10-29T00:52:17.748Z,100194.25
2022-10-29T00:52:34.273Z,100194.41
2022-10-29T00:52:49.763Z,100196.22
2022-10-29T00:53:02.487Z,100194.50
2022-10-29T00:53:19.747Z,100196.22
2022-10-29T00:53:37.419Z,100197.03
2022-10-29T00:53:55.857Z,100192.69
2022-10-29T00:54:12.542Z,100197.13
2022-10-29T00:54:24.617Z,100199.75
2022-10-29T00:54:40.906Z,100205.00
2022-10-29T00:54:55.003Z,100194.50
2022-10-29T00:55:09.007Z,100194.50
2022-10-29T00:55:21.262Z,100191.00
2022-10-29T00:55:33.332Z,100193.66
2022-10-29T00:55:45.836Z,100205.09
2022-10-29T00:55:58.902Z,100196.47
2022-10-29T00:56:11.717Z,100191.22
2022-10-29T00:56:26.166Z,100194.63
2022-10-29T00:56:41.853Z,100205.88
2022-10-29T00:57:00.701Z,100196.47
2022-10-29T00:57:18.824Z,100199.16
2022-10-29T00:57:36.958Z,100202.69
2022-10-29T00:57:53.075Z,100201.84
2022-10-29T00:58:05.419Z,100207.91
2022-10-29T00:58:17.961Z,100205.25
2022-10-29T00:58:30.134Z,100199.06
2022-10-29T00:58:43.230Z,100202.56
2022-10-29T00:58:55.698Z,100200.00
2022-10-29T00:59:09.348Z,100207.88
2022-10-29T00:59:22.983Z,100206.09
2022-10-29T00:59:35.282Z,100206.94
2022-10-29T01:00:07.420Z,100201.84
2022-10-29T01:00:21.156Z,100206.94
2022-10-29T01:00:33.215Z,100205.19
2022-10-29T01:00:45.439Z,100210.34
2022-10-29T01:00:57.641Z,100210.34
2022-10-29T01:01:09.979Z,100205.97
2022-10-29T01:01:23.593Z,100212.94
2022-10-29T01:01:37.621Z,100200.00
2022-10-29T01:01:51.244Z,100201.84
2022-10-29T01:02:03.786Z,100209.69
2022-10-29T01:02:17.646Z,100207.91
2022-10-29T01:02:31.995Z,100205.34
2022-10-29T01:02:47.326Z,100203.53
2022-10-29T01:02:59.652Z,100201.00
2022-10-29T01:03:12.109Z,100200.25
2022-10-29T01:03:24.198Z,100206.41
2022-10-29T01:03:38.547Z,100204.78
2022-10-29T01:03:52.771Z,100204.78
2022-10-29T01:04:05.381Z,100208.44
2022-10-29T01:04:18.600Z,100197.13
2022-10-29T01:04:31.140Z,100199.78
2022-10-29T01:04:43.471Z,100204.19
2022-10-29T01:04:55.661Z,100199.94
2022-10-29T01:05:09.216Z,100203.56
2022-10-29T01:05:25.111Z,100204.44
2022-10-29T01:05:37.699Z,100193.09
2022-10-29T01:05:51.567Z,100197.47
2022-10-29T01:06:03.828Z,100202.72
2022-10-29T01:06:15.967Z,100205.22
2022-10-29T01:06:30.178Z,100197.38
2022-10-29T01:06:43.816Z,100195.66
2022-10-29T01:06:56.293Z,100197.38
2022-10-29T01:07:08.488Z,100196.59
2022-10-29T01:07:22.335Z,100197.47
2022-10-29T01:07:34.826Z,100199.19
2022-10-29T01:07:47.489Z,100195.78
2022-10-29T01:08:00.326Z,100197.47
2022-10-29T01:08:14.215Z,100201.72
2022-10-29T01:08:29.647Z,100190.34
2022-10-29T01:08:41.699Z,100198.94
2022-10-29T01:08:53.926Z,100190.16
2022-10-29T01:09:07.526Z,100190.16
2022-10-29T01:09:19.619Z,100191.03
2022-10-29T01:09:31.731Z,100190.06
2022-10-29T01:09:43.985Z,100197.06
2022-10-29T01:09:56.329Z,100195.28
2022-10-29T01:10:09.357Z,100195.41
2022-10-29T01:10:33.257Z,100198.09
2022-10-29T01:10:45.308Z,100187.63
2022-10-29T01:11:12.492Z,100200.78
2022-10-29T01:11:58.327Z,100199.06
2022-10-29T01:12:13.130Z,100203.44
2022-10-29T01:12:51.114Z,100193.97
2022-10-29T01:13:18.634Z,100204.69
2022-10-29T01:13:40.647Z,100200.25
2022-10-29T01:14:17.544Z,100200.88
2022-10-29T01:14:52.591Z,100193.81
2022-10-29T01:15:16.048Z,100190.41
2022-10-29T01:15:44.629Z,100195.59
2022-10-29T01:16:09.543Z,100188.59
2022-10-29T01:16:33.063Z,100189.38
2022-10-29T01:17:17.604Z,100194.75
2022-10-29T01:17:51.604Z,100199.19
2022-10-29T01:18:06.481Z,100194.81
2022-10-29T01:18:24.706Z,100200.03
2022-10-29T01:18:47.665Z,100195.00
2022-10-29T01:19:12.917Z,100201.91
2022-10-29T01:19:49.662Z,100200.16
2022-10-29T01:20:23.191Z,100195.91
2022-10-29T01:20:44.058Z,100195.13
2022-10-29T01:21:27.683Z,100203.09
2022-10-29T01:21:43.545Z,100192.72
2022-10-29T01:22:33.551Z,100191.13
2022-10-29T01:23:00.348Z,100195.38
2022-10-29T01:23:40.061Z,100197.88
2022-10-29T01:24:03.937Z,100195.28
2022-10-29T01:24:53.117Z,100196.19
2022-10-29T01:25:29.449Z,100194.31
2022-10-29T01:26:08.166Z,100195.13
2022-10-29T01:26:47.372Z,100198.41
2022-10-29T01:27:26.804Z,100201.03
2022-10-29T01:27:51.560Z,100195.84
2022-10-29T01:28:09.911Z,100197.88
2022-10-29T01:28:41.747Z,100193.47
2022-10-29T01:29:22.610Z,100185.69
2022-10-29T01:30:00.375Z,100193.75
2022-10-29T01:30:23.850Z,100191.44
2022-10-29T01:31:07.402Z,100195.03
2022-10-29T01:31:34.267Z,100188.81
2022-10-29T01:31:54.063Z,100194.00
2022-10-29T01:32:18.611Z,100189.66
2022-10-29T01:32:50.291Z,100189.81
2022-10-29T01:33:19.045Z,100191.44
2022-10-29T01:33:44.086Z,100188.66
2022-10-29T01:34:03.904Z,100192.97
2022-10-29T01:34:34.367Z,100186.03
2022-10-29T01:35:01.987Z,100192.13
2022-10-29T01:35:40.595Z,100187.06
2022-10-29T01:36:08.164Z,100187.19
2022-10-29T01:36:33.742Z,100200.94
2022-10-29T01:37:02.992Z,100189.44
2022-10-29T01:37:22.386Z,100191.13
2022-10-29T01:38:06.677Z,100199.91
2022-10-29T01:38:34.651Z,100192.84
2022-10-29T01:39:03.012Z,100191.13
2022-10-29T01:39:27.428Z,100191.13
2022-10-29T01:39:39.371Z,100192.84
2022-10-29T01:40:00.819Z,100200.75
2022-10-29T01:40:24.750Z,100196.19
2022-10-29T01:41:03.130Z,100190.81
2022-10-29T01:41:25.795Z,100199.56
2022-10-29T01:41:55.614Z,100196.09
2022-10-29T01:42:35.851Z,100198.88
2022-10-29T01:42:57.871Z,100199.44
2022-10-29T01:43:25.781Z,100197.41
2022-10-29T01:43:47.628Z,100192.97
2022-10-29T01:44:10.607Z,100193.75
2022-10-29T01:44:42.755Z,100190.28
2022-10-29T01:45:08.263Z,100182.75
2022-10-29T01:45:42.013Z,100180.47
2022-10-29T01:46:23.351Z,100195.16
2022-10-29T01:46:35.328Z,100182.84
2022-10-29T01:46:55.264Z,100183.59
2022-10-29T01:47:21.688Z,100181.50
2022-10-29T01:47:42.397Z,100190.91
2022-10-29T01:47:58.720Z,100182.03
2022-10-29T01:48:18.918Z,100178.53
2022-10-29T01:48:37.303Z,100177.63
2022-10-29T01:48:54.970Z,100178.63
2022-10-29T01:49:14.134Z,100179.00
2022-10-29T01:49:34.308Z,100179.94
2022-10-29T01:49:53.624Z,100180.13
2022-10-29T01:50:09.247Z,100177.50
2022-10-29T01:50:23.493Z,100182.75
2022-10-29T01:50:38.149Z,100173.06
2022-10-29T01:50:55.313Z,100174.66
2022-10-29T01:51:13.804Z,100175.44
2022-10-29T01:51:31.043Z,100175.44
2022-10-29T01:51:43.731Z,100177.28
2022-10-29T01:51:58.193Z,100172.03
2022-10-29T01:52:15.244Z,100163.50
2022-10-29T01:52:31.065Z,100170.47
2022-10-29T01:52:44.671Z,100166.06
2022-10-29T01:52:57.287Z,100172.19
2022-10-29T01:53:10.197Z,100173.88
2022-10-29T01:53:23.507Z,100165.13
2022-10-29T01:53:37.843Z,100169.31
2022-10-29T01:53:52.103Z,100168.38
2022-10-29T01:54:10.066Z,100167.47
2022-10-29T01:54:22.113Z,100169.16
2022-10-29T01:54:34.258Z,100167.41
2022-10-29T01:54:47.750Z,100164.75
2022-10-29T01:54:59.795Z,100164.69
2022-10-29T01:55:16.638Z,100163.78
2022-10-29T01:55:33.229Z,100163.72
2022-10-29T01:55:46.454Z,100168.91
2022-10-29T01:56:10.312Z,100166.34
2022-10-29T01:56:22.405Z,100164.75
2022-10-29T01:56:34.492Z,100169.09
2022-10-29T01:56:58.762Z,100164.66
2022-10-29T01:57:30.788Z,100167.91
2022-10-29T01:57:43.967Z,100172.16
2022-10-29T01:57:56.238Z,100169.47
2022-10-29T01:58:11.576Z,100172.94
2022-10-29T01:58:25.381Z,100169.47
2022-10-29T01:58:38.289Z,100163.47
2022-10-29T01:58:55.754Z,100162.69
2022-10-29T01:59:22.948Z,100171.47
2022-10-29T01:59:55.423Z,100166.34
2022-10-29T02:00:14.633Z,100169.88
2022-10-29T02:00:32.939Z,100164.66
2022-10-29T02:00:54.108Z,100166.22
2022-10-29T02:01:28.772Z,100166.22
2022-10-29T02:01:59.510Z,100160.84
2022-10-29T02:02:48.569Z,100167.91
2022-10-29T02:03:14.482Z,100167.59
2022-10-29T02:03:35.195Z,100167.66
2022-10-29T02:04:01.163Z,100162.50
2022-10-29T02:04:41.727Z,100166.81
2022-10-29T02:05:20.842Z,100161.56
2022-10-29T02:05:37.994Z,100164.44
2022-10-29T02:05:50.008Z,100162.72
2022-10-29T02:06:20.744Z,100159.25
2022-10-29T02:07:14.981Z,100162.63
2022-10-29T02:07:44.994Z,100159.22
2022-10-29T02:07:59.599Z,100158.16
2022-10-29T02:08:23.679Z,100163.41
2022-10-29T02:08:35.741Z,100157.28
2022-10-29T02:09:09.924Z,100157.31
2022-10-29T02:09:32.541Z,100163.41
2022-10-29T02:10:02.631Z,100161.72
2022-10-29T02:10:38.283Z,100160.91
2022-10-29T02:11:07.261Z,100156.69
2022-10-29T02:11:45.325Z,100162.13
2022-10-29T02:12:13.784Z,100162.31
2022-10-29T02:12:31.623Z,100161.47
2022-10-29T02:12:49.874Z,100156.09
2022-10-29T02:13:02.205Z,100156.84
2022-10-29T02:13:17.702Z,100160.25
2022-10-29T02:13:39.276Z,100158.41
2022-10-29T02:13:59.345Z,100155.75
2022-10-29T02:14:26.005Z,100157.44
2022-10-29T02:14:54.996Z,100153.19
2022-10-29T02:15:17.927Z,100155.13
2022-10-29T02:15:42.880Z,100167.31
2022-10-29T02:15:57.111Z,100160.25
2022-10-29T02:16:10.957Z,100156.84
2022-10-29T02:16:25.055Z,100158.63
2022-10-29T02:16:37.510Z,100156.00
2022-10-29T02:16:49.993Z,100161.22
2022-10-29T02:17:02.862Z,100150.88
2022-10-29T02:17:14.913Z,100154.47
2022-10-29T02:17:27.246Z,100151.84
2022-10-29T02:17:39.459Z,100158.78
2022-10-29T02:17:51.841Z,100158.78
2022-10-29T02:18:06.762Z,100160.69
2022-10-29T02:18:19.231Z,100158.06
2022-10-29T02:18:31.267Z,100156.28
2022-10-29T02:18:47.461Z,100157.19
2022-10-29T02:19:00.354Z,100158.91
2022-10-29T02:19:12.674Z,100157.97
2022-10-29T02:19:30.609Z,100159.69
2022-10-29T02:19:42.721Z,100165.81
2022-10-29T02:19:54.789Z,100162.44
2022-10-29T02:20:10.057Z,100156.34
2022-10-29T02:20:22.100Z,100152.84
2022-10-29T02:20:35.390Z,100156.34
2022-10-29T02:20:47.843Z,100156.34
2022-10-29T02:20:59.930Z,100155.50
2022-10-29T02:21:16.120Z,100152.06
2022-10-29T02:21:28.311Z,100157.34
2022-10-29T02:21:42.449Z,100157.34
2022-10-29T02:21:54.524Z,100152.22
2022-10-29T02:22:06.648Z,100151.31
2022-10-29T02:22:18.806Z,100150.53
2022-10-29T02:22:30.836Z,100153.13
2022-10-29T02:22:43.503Z,100153.94
2022-10-29T02:22:55.815Z,100152.34
2022-10-29T02:23:07.942Z,100152.28
2022-10-29T02:23:19.976Z,100151.38
2022-10-29T02:23:32.089Z,100156.53
2022-10-29T02:23:44.584Z,100157.34
2022-10-29T02:23:56.660Z,100155.63
2022-10-29T02:24:08.955Z,100157.34
2022-10-29T02:24:21.028Z,100159.03
2022-10-29T02:24:33.147Z,100145.94
2022-10-29T02:24:45.228Z,100155.63
2022-10-29T02:24:57.303Z,100153.88
2022-10-29T02:25:09.938Z,100151.31
2022-10-29T02:25:22.645Z,100154.81
2022-10-29T02:25:34.790Z,100157.38
2022-10-29T02:25:47.004Z,100155.63
2022-10-29T02:25:59.203Z,100154.78
2022-10-29T02:26:11.619Z,100152.09
2022-10-29T02:26:24.019Z,100152.91
2022-10-29T02:26:36.085Z,100153.69
2022-10-29T02:26:48.107Z,100152.06
2022-10-29T02:27:00.244Z,100155.63
2022-10-29T02:27:12.291Z,100157.44
2022-10-29T02:27:24.379Z,100154.81
2022-10-29T02:27:36.440Z,100153.94
2022-10-29T02:27:48.505Z,100151.25
2022-10-29T02:28:02.059Z,100152.94
2022-10-29T02:28:14.287Z,100153.00
2022-10-29T02:28:26.411Z,100154.72
2022-10-29T02:28:38.848Z,100153.78
2022-10-29T02:28:50.935Z,100153.78
2022-10-29T02:29:03.131Z,100153.78
2022-10-29T02:29:15.183Z,100153.78
2022-10-29T02:29:27.445Z,100150.28
2022-10-29T02:29:39.488Z,100153.78
2022-10-29T02:29:51.647Z,100151.25
2022-10-29T02:30:04.726Z,100153.00
2022-10-29T02:30:17.629Z,100150.38
2022-10-29T02:30:29.660Z,100150.38
2022-10-29T02:30:41.731Z,100154.03
2022-10-29T02:30:53.815Z,100146.38
2022-10-29T02:31:06.017Z,100149.97
2022-10-29T02:31:18.072Z,100146.44
2022-10-29T02:31:30.119Z,100143.81
2022-10-29T02:31:42.195Z,100146.38
2022-10-29T02:31:54.223Z,100144.66
2022-10-29T02:32:06.383Z,100139.56
2022-10-29T02:32:18.519Z,100147.47
2022-10-29T02:32:32.568Z,100149.28
2022-10-29T02:32:44.745Z,100153.69
2022-10-29T02:32:57.261Z,100152.69
2022-10-29T02:33:09.526Z,100151.00
2022-10-29T02:33:21.645Z,100144.84
2022-10-29T02:33:33.785Z,100154.53
2022-10-29T02:33:45.862Z,100151.13
2022-10-29T02:33:57.881Z,100153.78
2022-10-29T02:34:09.975Z,100146.88
2022-10-29T02:34:22.009Z,100153.88
2022-10-29T02:34:34.110Z,100144.31
2022-10-29T02:34:46.138Z,100153.06
2022-10-29T02:34:58.168Z,100149.53
2022-10-29T02:35:10.608Z,100153.88
2022-10-29T02:35:22.797Z,100159.16
2022-10-29T02:35:34.844Z,100154.75
2022-10-29T02:35:46.897Z,100156.47
2022-10-29T02:35:59.089Z,100152.94
2022-10-29T02:36:11.197Z,100148.41
2022-10-29T02:36:23.233Z,100153.53
2022-10-29T02:36:35.296Z,100150.88
2022-10-29T02:36:47.358Z,100152.59
2022-10-29T02:36:59.395Z,100148.16
2022-10-29T02:37:11.472Z,100149.88
2022-10-29T02:37:23.584Z,100156.00
2022-10-29T02:37:35.954Z,100143.72
2022-10-29T02:37:48.727Z,100150.75
2022-10-29T02:38:00.869Z,100156.84
2022-10-29T02:38:12.935Z,100145.53
2022-10-29T02:38:25.121Z,100150.03
2022-10-29T02:38:37.222Z,100151.00
2022-10-29T02:38:49.270Z,100154.53
2022-10-29T02:39:01.322Z,100152.88
2022-10-29T02:39:13.438Z,100151.25
2022-10-29T02:39:25.534Z,100156.47
2022-10-29T02:39:37.652Z,100154.75
2022-10-29T02:39:49.733Z,100147.84
2022-10-29T02:40:02.215Z,100161.81
2022-10-29T02:40:14.520Z,100154.91
2022-10-29T02:40:26.531Z,100156.59
2022-10-29T02:40:38.634Z,100147.84
2022-10-29T02:40:52.149Z,100157.38
2022-10-29T02:41:04.322Z,100155.56
2022-10-29T02:41:16.386Z,100159.88
2022-10-29T02:41:28.451Z,100147.72
2022-10-29T02:41:40.595Z,100152.16
2022-10-29T02:41:52.695Z,100148.78
2022-10-29T02:42:04.911Z,100149.78
2022-10-29T02:42:17.104Z,100146.38
2022-10-29T02:42:29.214Z,100151.59
2022-10-29T02:42:41.272Z,100149.03
2022-10-29T02:42:53.573Z,100145.56
2022-10-29T02:43:05.891Z,100154.25
2022-10-29T02:43:29.909Z,100149.16
2022-10-29T02:43:41.973Z,100154.38
2022-10-29T02:43:54.054Z,100145.56
2022-10-29T02:44:06.121Z,100148.09
2022-10-29T02:44:20.255Z,100153.19
2022-10-29T02:44:32.408Z,100148.75
2022-10-29T02:44:44.415Z,100148.75
2022-10-29T02:44:56.513Z,100152.16
2022-10-29T02:45:08.964Z,100151.25
2022-10-29T02:45:20.980Z,100151.16
2022-10-29T02:45:34.905Z,100145.94
2022-10-29T02:45:46.892Z,100149.44
2022-10-29T02:46:20.424Z,100150.38
2022-10-29T02:46:35.999Z,100148.69
2022-10-29T02:46:48.079Z,100150.47
2022-10-29T02:47:00.133Z,100147.09
2022-10-29T02:47:12.319Z,100147.16
2022-10-29T02:47:24.383Z,100151.59
2022-10-29T02:47:36.420Z,100148.13
2022-10-29T02:47:48.439Z,100153.31
2022-10-29T02:48:02.023Z,100149.78
2022-10-29T02:48:14.049Z,100155.00
2022-10-29T02:48:26.092Z,100150.63
2022-10-29T02:48:38.159Z,100158.53
2022-10-29T02:48:50.604Z,100155.09
2022-10-29T02:49:02.895Z,100153.50
2022-10-29T02:49:14.971Z,100151.09
2022-10-29T02:49:27.160Z,100151.94
2022-10-29T02:49:39.240Z,100154.63
2022-10-29T02:49:51.383Z,100151.28
2022-10-29T02:50:03.655Z,100148.88
2022-10-29T02:50:17.192Z,100150.72
2022-10-29T02:50:40.454Z,100145.63
2022-10-29T02:50:54.659Z,100147.16
2022-10-29T02:51:08.923Z,100149.88
2022-10-29T02:51:23.355Z,100152.53
2022-10-29T02:51:45.059Z,100150.72
2022-10-29T02:51:57.130Z,100155.94
2022-10-29T02:52:12.907Z,100153.31
2022-10-29T02:52:26.206Z,100153.31
2022-10-29T02:52:40.933Z,100152.41
2022-10-29T02:52:54.132Z,100155.94
2022-10-29T02:53:10.485Z,100153.31
2022-10-29T02:53:24.583Z,100155.94
2022-10-29T02:53:37.140Z,100157.75
2022-10-29T02:53:49.185Z,100156.03
2022-10-29T02:54:01.215Z,100157.75
2022-10-29T02:54:16.231Z,100150.84
2022-10-29T02:54:28.282Z,100154.44
2022-10-29T02:54:42.971Z,100153.56
2022-10-29T02:54:59.628Z,100154.34
2022-10-29T02:55:11.687Z,100156.03
2022-10-29T02:55:26.323Z,100151.69
2022-10-29T02:55:38.342Z,100145.53
2022-10-29T02:55:50.414Z,100152.41
2022-10-29T02:56:05.603Z,100149.72
2022-10-29T02:56:20.063Z,100147.91
2022-10-29T02:56:33.626Z,100155.69
2022-10-29T02:56:45.718Z,100149.56
2022-10-29T02:57:00.850Z,100150.47
2022-10-29T02:57:12.908Z,100150.56
2022-10-29T02:57:28.261Z,100145.44
2022-10-29T02:57:43.428Z,100148.09
2022-10-29T02:57:55.706Z,100146.47
2022-10-29T02:58:13.888Z,100144.69
2022-10-29T02:58:26.019Z,100146.47
2022-10-29T02:58:38.770Z,100149.00
2022-10-29T02:58:50.796Z,100145.47
2022-10-29T02:59:09.142Z,100151.38
2022-10-29T02:59:27.635Z,100148.66
2022-10-29T02:59:39.972Z,100152.06
2022-10-29T02:59:52.088Z,100153.75
2022-10-29T03:00:05.727Z,100146.69
2022-10-29T03:00:19.501Z,100153.66
2022-10-29T03:00:34.627Z,100152.81
2022-10-29T03:00:49.987Z,100150.09
2022-10-29T03:01:02.255Z,100151.81
2022-10-29T03:01:14.495Z,100153.50
2022-10-29T03:01:27.980Z,100146.59
2022-10-29T03:01:42.257Z,100153.59
2022-10-29T03:01:56.538Z,100149.44
2022-10-29T03:02:08.825Z,100150.34
2022-10-29T03:02:21.064Z,100152.16
2022-10-29T03:02:33.212Z,100145.25
2022-10-29T03:02:48.415Z,100153.88
2022-10-29T03:03:04.042Z,100146.16
2022-10-29T03:03:16.189Z,100153.09
2022-10-29T03:03:28.663Z,100152.28
2022-10-29T03:03:40.825Z,100154.84
2022-10-29T03:03:52.937Z,100147.06
2022-10-29T03:04:05.116Z,100153.09
2022-10-29T03:04:17.230Z,100150.47